Time;durP1;ratioP1;P1;durP2;ratioP2;P2;SDS_P1;SDS_P2;PMS_P1;PMS_P2;Temp;Humidity;BMP_temperature;BMP_pressure;BME280_temperature;BME280_humidity;BME280_pressure;Samples;Min_cycle;Max_cycle;Signal;HPM_P1;HPM_P2
2023/04/03 00:00:17;;;;;;;4.10;1.50;;;;;;;;;;4921980;29;20941;-65
2023/04/03 00:02:44;;;;;;;5.70;1.30;;;;;;;;;;4914653;29;20344;-64
2023/04/03 00:05:11;;;;;;;3.90;1.60;;;;;;;;;;4914498;29;20055;-64
2023/04/03 00:07:37;;;;;;;5.53;1.42;;;;;;;;;;4920861;29;20055;-64
2023/04/03 00:10:03;;;;;;;2.75;1.35;;;;;;;;;;4922955;29;20056;-63
2023/04/03 00:12:30;;;;;;;2.92;1.60;;;;;;;;;;4916063;29;20055;-64
2023/04/03 00:14:56;;;;;;;5.32;1.58;;;;;;;;;;4919695;29;20058;-63
2023/04/03 00:17:22;;;;;;;4.32;1.42;;;;;;;;;;4918789;29;20051;-64
2023/04/03 00:19:49;;;;;;;5.75;1.80;;;;;;;;;;4923300;29;20057;-63
2023/04/03 00:22:15;;;;;;;2.63;1.23;;;;;;;;;;4927742;29;20052;-63
2023/04/03 00:24:41;;;;;;;3.35;1.45;;;;;;;;;;4922346;29;20056;-64
2023/04/03 00:27:08;;;;;;;4.03;1.50;;;;;;;;;;4926159;29;20112;-65
2023/04/03 00:29:34;;;;;;;7.10;1.92;;;;;;;;;;4912314;29;20058;-65
2023/04/03 00:32:02;;;;;;;5.05;1.40;;;;;;;;;;4915995;29;20062;-67
2023/04/03 00:34:28;;;;;;;4.78;1.60;;;;;;;;;;4909294;29;20063;-66
2023/04/03 00:36:55;;;;;;;2.55;1.50;;;;;;;;;;4918652;29;20067;-65
2023/04/03 00:39:21;;;;;;;3.22;1.15;;;;;;;;;;4932138;29;20066;-66
2023/04/03 00:41:47;;;;;;;4.28;1.50;;;;;;;;;;4925910;29;20060;-64
2023/04/03 00:44:20;;;;;;;4.50;1.55;;;;;;;;;;4923086;29;20052;-66
2023/04/03 00:46:47;;;;;;;4.03;1.92;;;;;;;;;;4909386;29;20779;-67
2023/04/03 00:49:14;;;;;;;4.13;1.67;;;;;;;;;;4928179;29;20098;-66
2023/04/03 00:51:41;;;;;;;5.50;1.80;;;;;;;;;;4920816;29;20058;-65
2023/04/03 00:54:07;;;;;;;2.75;1.52;;;;;;;;;;4921055;29;20060;-66
2023/04/03 00:56:35;;;;;;;2.78;1.42;;;;;;;;;;4928315;29;20054;-65
2023/04/03 00:59:10;;;;;;;5.47;1.60;;;;;;;;;;4921901;28;20055;-64
2023/04/03 01:01:37;;;;;;;3.70;1.60;;;;;;;;;;4919823;29;20052;-66
2023/04/03 01:04:05;;;;;;;4.22;1.52;;;;;;;;;;4922378;29;20519;-65
2023/04/03 01:06:37;;;;;;;5.03;1.60;;;;;;;;;;4932211;29;20056;-64
2023/04/03 01:09:04;;;;;;;3.47;1.70;;;;;;;;;;4927073;29;20081;-64
2023/04/03 01:11:30;;;;;;;3.30;1.50;;;;;;;;;;4930128;29;20438;-64
2023/04/03 01:13:57;;;;;;;5.28;1.52;;;;;;;;;;4923476;29;20051;-63
2023/04/03 01:16:23;;;;;;;3.90;1.40;;;;;;;;;;4917444;29;20044;-65
2023/04/03 01:18:50;;;;;;;4.07;1.67;;;;;;;;;;4927441;29;20408;-63
2023/04/03 01:21:16;;;;;;;3.75;1.42;;;;;;;;;;4924604;29;20058;-64
2023/04/03 01:24:01;;;;;;;4.00;1.90;;;;;;;;;;4930999;29;20484;-65
2023/04/03 01:26:28;;;;;;;2.80;1.50;;;;;;;;;;4920188;28;20056;-67
2023/04/03 01:28:55;;;;;;;4.30;1.63;;;;;;;;;;4925455;29;20070;-64
2023/04/03 01:31:26;;;;;;;4.88;1.50;;;;;;;;;;4923939;29;20048;-64
2023/04/03 01:33:53;;;;;;;3.78;1.38;;;;;;;;;;4926995;29;20050;-66
2023/04/03 01:36:24;;;;;;;2.83;1.55;;;;;;;;;;4925365;29;20055;-66
2023/04/03 01:38:51;;;;;;;5.93;1.48;;;;;;;;;;4918353;29;20048;-65
2023/04/03 01:41:17;;;;;;;4.88;1.65;;;;;;;;;;4926086;29;20048;-64
2023/04/03 01:46:19;;;;;;;4.95;1.90;;;;;;;;;;5037116;23;20063;-70
2023/04/03 01:48:46;;;;;;;4.18;1.60;;;;;;;;;;4907340;29;20139;-72
2023/04/03 01:51:13;;;;;;;4.22;1.42;;;;;;;;;;4907513;29;20139;-71
2023/04/03 01:53:39;;;;;;;4.63;1.50;;;;;;;;;;4907345;29;20048;-70
2023/04/03 01:56:06;;;;;;;4.65;1.60;;;;;;;;;;4896256;29;20072;-71
2023/04/03 01:58:32;;;;;;;6.13;1.65;;;;;;;;;;4912643;29;20055;-71
2023/04/03 02:00:59;;;;;;;4.72;1.63;;;;;;;;;;4907440;29;20054;-70
2023/04/03 02:03:26;;;;;;;6.22;1.77;;;;;;;;;;4912907;29;20115;-71
2023/04/03 02:05:52;;;;;;;3.17;1.45;;;;;;;;;;4900425;29;20048;-71
2023/04/03 02:08:18;;;;;;;5.63;1.67;;;;;;;;;;4912900;29;20070;-68
2023/04/03 02:10:48;;;;;;;5.20;1.58;;;;;;;;;;4911491;29;20704;-72
2023/04/03 02:13:15;;;;;;;5.40;1.85;;;;;;;;;;4907369;29;20060;-68
2023/04/03 02:15:42;;;;;;;3.80;1.60;;;;;;;;;;4912216;29;20054;-72
2023/04/03 02:18:08;;;;;;;4.43;1.48;;;;;;;;;;4905067;29;20427;-69
2023/04/03 02:20:35;;;;;;;4.28;1.70;;;;;;;;;;4909552;29;20056;-71
2023/04/03 02:23:02;;;;;;;5.53;1.55;;;;;;;;;;4906665;29;20052;-72
2023/04/03 02:25:30;;;;;;;3.78;1.80;;;;;;;;;;4911893;29;20048;-68
2023/04/03 02:27:56;;;;;;;5.10;1.63;;;;;;;;;;4912996;29;20048;-72
2023/04/03 02:30:22;;;;;;;3.58;1.50;;;;;;;;;;4904810;29;20048;-71
2023/04/03 02:32:49;;;;;;;2.83;1.42;;;;;;;;;;4919903;29;20467;-70
2023/04/03 02:35:16;;;;;;;4.28;1.98;;;;;;;;;;4905830;29;20063;-70
2023/04/03 02:37:42;;;;;;;5.90;2.10;;;;;;;;;;4911901;29;20670;-71
2023/04/03 02:40:09;;;;;;;8.93;2.08;;;;;;;;;;4904761;29;20052;-70
2023/04/03 02:42:35;;;;;;;6.07;1.60;;;;;;;;;;4912082;29;20485;-70
2023/04/03 02:45:01;;;;;;;3.55;1.50;;;;;;;;;;4908314;29;20588;-70
2023/04/03 02:47:27;;;;;;;6.72;1.50;;;;;;;;;;4902141;29;20056;-71
2023/04/03 02:49:54;;;;;;;6.57;1.73;;;;;;;;;;4911205;29;20044;-71
2023/04/03 02:52:20;;;;;;;4.30;1.70;;;;;;;;;;4906539;29;20535;-71
2023/04/03 02:54:47;;;;;;;3.45;1.58;;;;;;;;;;4907237;29;20044;-71
2023/04/03 02:57:13;;;;;;;3.40;1.70;;;;;;;;;;4906656;29;20048;-71
2023/04/03 02:59:40;;;;;;;5.28;1.80;;;;;;;;;;4907494;29;20056;-71
2023/04/03 03:02:07;;;;;;;5.32;1.75;;;;;;;;;;4907889;29;20056;-71
2023/04/03 03:04:34;;;;;;;5.10;1.60;;;;;;;;;;4904698;29;20048;-70
2023/04/03 03:07:00;;;;;;;5.07;1.70;;;;;;;;;;4911867;29;20056;-71
2023/04/03 03:09:26;;;;;;;6.03;1.90;;;;;;;;;;4904150;29;20044;-71
2023/04/03 03:11:53;;;;;;;4.78;1.63;;;;;;;;;;4912023;29;20420;-71
2023/04/03 03:14:19;;;;;;;6.07;1.77;;;;;;;;;;4901048;29;20244;-70
2023/04/03 03:16:45;;;;;;;3.13;1.45;;;;;;;;;;4909702;29;20103;-71
2023/04/03 03:19:12;;;;;;;7.38;1.67;;;;;;;;;;4911991;29;20062;-70
2023/04/03 03:21:38;;;;;;;5.47;1.55;;;;;;;;;;4905248;29;20056;-71
2023/04/03 03:24:04;;;;;;;5.78;1.85;;;;;;;;;;4910365;29;20170;-71
2023/04/03 03:26:31;;;;;;;7.07;1.85;;;;;;;;;;4902753;29;20100;-69
2023/04/03 03:28:57;;;;;;;4.45;1.60;;;;;;;;;;4905068;29;20502;-71
2023/04/03 03:31:23;;;;;;;4.60;1.88;;;;;;;;;;4905698;29;20079;-71
2023/04/03 03:33:50;;;;;;;2.83;1.50;;;;;;;;;;4910729;29;20059;-70
2023/04/03 03:36:16;;;;;;;4.45;1.35;;;;;;;;;;4911342;29;20603;-71
2023/04/03 03:38:43;;;;;;;4.38;1.90;;;;;;;;;;4901968;29;20472;-72
2023/04/03 03:41:10;;;;;;;4.05;1.70;;;;;;;;;;4904901;29;20659;-72
2023/04/03 03:43:37;;;;;;;8.32;1.92;;;;;;;;;;4898529;29;20123;-72
2023/04/03 03:46:03;;;;;;;5.20;1.63;;;;;;;;;;4910600;29;20198;-71
2023/04/03 03:48:29;;;;;;;2.95;1.50;;;;;;;;;;4908284;29;20048;-69
2023/04/03 03:50:56;;;;;;;2.72;1.50;;;;;;;;;;4910195;29;20719;-71
2023/04/03 03:53:22;;;;;;;5.88;1.60;;;;;;;;;;4911374;29;20441;-71
2023/04/03 03:55:48;;;;;;;4.45;1.67;;;;;;;;;;4899903;29;20476;-71
2023/04/03 03:58:15;;;;;;;6.88;1.90;;;;;;;;;;4906387;29;20062;-69
2023/04/03 04:00:41;;;;;;;7.97;2.05;;;;;;;;;;4905064;29;20452;-71
2023/04/03 04:03:07;;;;;;;4.25;1.70;;;;;;;;;;4912843;29;20060;-71
2023/04/03 04:05:34;;;;;;;6.47;2.05;;;;;;;;;;4910784;29;20100;-71
2023/04/03 04:08:01;;;;;;;5.28;1.92;;;;;;;;;;4907208;29;20056;-70
2023/04/03 04:10:27;;;;;;;4.50;1.48;;;;;;;;;;4907918;29;20557;-70
2023/04/03 04:12:53;;;;;;;6.15;2.08;;;;;;;;;;4907989;29;20051;-71
2023/04/03 04:15:22;;;;;;;8.25;1.77;;;;;;;;;;4914422;29;20062;-71
2023/04/03 04:17:49;;;;;;;3.60;1.73;;;;;;;;;;4908080;29;20493;-72
2023/04/03 04:20:15;;;;;;;3.53;1.60;;;;;;;;;;4910504;29;20052;-70
2023/04/03 04:22:41;;;;;;;7.30;1.80;;;;;;;;;;4907299;29;20048;-68
2023/04/03 04:25:08;;;;;;;4.38;1.83;;;;;;;;;;4908689;29;20131;-71
2023/04/03 04:27:34;;;;;;;8.45;2.53;;;;;;;;;;4914169;29;20624;-71
2023/04/03 04:30:01;;;;;;;6.38;1.88;;;;;;;;;;4905319;29;20052;-71
2023/04/03 04:32:27;;;;;;;5.55;2.00;;;;;;;;;;4913952;29;20055;-71
2023/04/03 04:34:53;;;;;;;5.38;1.70;;;;;;;;;;4907307;29;20056;-71
2023/04/03 04:37:20;;;;;;;5.40;1.90;;;;;;;;;;4909751;29;20515;-70
2023/04/03 04:39:46;;;;;;;5.05;1.92;;;;;;;;;;4901095;29;20056;-70
2023/04/03 04:42:12;;;;;;;5.18;1.75;;;;;;;;;;4911267;29;20143;-70
2023/04/03 04:44:41;;;;;;;5.65;1.90;;;;;;;;;;4912849;29;20078;-70
2023/04/03 04:47:08;;;;;;;5.60;1.98;;;;;;;;;;4907569;29;20071;-71
2023/04/03 04:49:34;;;;;;;6.03;1.90;;;;;;;;;;4912034;29;20500;-68
2023/04/03 04:52:01;;;;;;;6.70;1.90;;;;;;;;;;4901972;29;20621;-70
2023/04/03 04:54:29;;;;;;;5.07;1.90;;;;;;;;;;4911510;29;20056;-71
2023/04/03 04:56:56;;;;;;;5.53;1.83;;;;;;;;;;4911898;29;20056;-68
2023/04/03 04:59:22;;;;;;;4.72;1.80;;;;;;;;;;4910883;29;20104;-70
2023/04/03 05:01:49;;;;;;;5.88;2.05;;;;;;;;;;4912227;29;20071;-71
2023/04/03 05:04:15;;;;;;;10.00;2.00;;;;;;;;;;4903084;29;20052;-70
2023/04/03 05:06:42;;;;;;;7.97;2.58;;;;;;;;;;4909235;29;20139;-70
2023/04/03 05:09:09;;;;;;;8.27;2.40;;;;;;;;;;5254270;23;20519;-67
2023/04/03 05:11:36;;;;;;;5.40;1.88;;;;;;;;;;4930316;29;21076;-70
2023/04/03 05:14:05;;;;;;;5.63;2.08;;;;;;;;;;4928384;29;20062;-69
2023/04/03 05:16:32;;;;;;;7.32;1.95;;;;;;;;;;4930482;29;20044;-69
2023/04/03 05:18:58;;;;;;;5.32;2.28;;;;;;;;;;4926358;29;20484;-71
2023/04/03 05:21:25;;;;;;;4.50;1.80;;;;;;;;;;4921225;29;20063;-75
2023/04/03 05:23:52;;;;;;;4.50;1.88;;;;;;;;;;4931922;29;20066;-72
2023/04/03 05:26:18;;;;;;;6.15;2.08;;;;;;;;;;4927335;28;20527;-70
2023/04/03 05:28:45;;;;;;;3.97;1.63;;;;;;;;;;4932486;29;20048;-72
2023/04/03 05:31:12;;;;;;;5.25;1.75;;;;;;;;;;4931524;29;20139;-71
2023/04/03 05:33:39;;;;;;;6.78;1.92;;;;;;;;;;4920225;29;20054;-69
2023/04/03 05:36:05;;;;;;;7.28;1.80;;;;;;;;;;4931973;29;20051;-71
2023/04/03 05:38:32;;;;;;;6.28;1.60;;;;;;;;;;4924750;29;20044;-72
2023/04/03 05:40:58;;;;;;;2.95;1.67;;;;;;;;;;4931495;29;20059;-71
2023/04/03 05:43:25;;;;;;;6.38;1.83;;;;;;;;;;4924661;29;20095;-71
2023/04/03 05:45:51;;;;;;;7.55;3.08;;;;;;;;;;4927804;29;20114;-71
2023/04/03 05:48:18;;;;;;;6.63;2.50;;;;;;;;;;4919915;29;20104;-70
2023/04/03 05:50:45;;;;;;;6.53;2.20;;;;;;;;;;4926076;29;20058;-72
2023/04/03 05:53:20;;;;;;;7.47;2.25;;;;;;;;;;4931847;29;20071;-72
2023/04/03 05:55:46;;;;;;;3.45;1.70;;;;;;;;;;4923968;29;20052;-72
2023/04/03 05:58:13;;;;;;;7.18;2.05;;;;;;;;;;4930479;29;20059;-69
2023/04/03 06:00:39;;;;;;;6.63;1.80;;;;;;;;;;4921465;29;20055;-72
2023/04/03 06:05:41;;;;;;;4.70;1.75;;;;;;;;;;5054787;23;20138;-64
2023/04/03 06:08:08;;;;;;;6.28;1.85;;;;;;;;;;4924911;28;20409;-66
2023/04/03 06:10:35;;;;;;;5.30;1.73;;;;;;;;;;4931270;29;20666;-64
2023/04/03 06:13:02;;;;;;;7.10;2.10;;;;;;;;;;4924574;29;20087;-65
2023/04/03 06:15:29;;;;;;;4.47;1.70;;;;;;;;;;4924476;29;20048;-67
2023/04/03 06:17:56;;;;;;;6.13;2.22;;;;;;;;;;4921832;29;20055;-65
2023/04/03 06:20:22;;;;;;;8.18;1.67;;;;;;;;;;4930769;29;20123;-65
2023/04/03 06:22:49;;;;;;;6.38;1.88;;;;;;;;;;4929664;29;20506;-65
2023/04/03 06:25:17;;;;;;;5.30;1.90;;;;;;;;;;4924474;29;20083;-66
2023/04/03 06:27:43;;;;;;;5.53;1.92;;;;;;;;;;4925848;29;20054;-65
2023/04/03 06:30:10;;;;;;;8.60;1.75;;;;;;;;;;4919446;29;20823;-65
2023/04/03 06:32:37;;;;;;;6.68;2.55;;;;;;;;;;4928631;29;20055;-65
2023/04/03 06:35:04;;;;;;;7.65;2.83;;;;;;;;;;4923675;29;20091;-64
2023/04/03 06:37:32;;;;;;;4.90;1.70;;;;;;;;;;4929081;29;20515;-65
2023/04/03 06:40:00;;;;;;;6.00;2.00;;;;;;;;;;4926134;29;20459;-67
2023/04/03 06:42:26;;;;;;;4.28;1.48;;;;;;;;;;4925741;29;20166;-65
2023/04/03 06:44:53;;;;;;;7.32;2.00;;;;;;;;;;4925530;29;20662;-65
2023/04/03 06:47:19;;;;;;;8.38;2.25;;;;;;;;;;4922811;29;20059;-65
2023/04/03 06:49:45;;;;;;;4.30;1.70;;;;;;;;;;4929184;29;20334;-65
2023/04/03 06:52:12;;;;;;;5.32;1.45;;;;;;;;;;4924942;29;20059;-66
2023/04/03 06:54:40;;;;;;;5.20;2.65;;;;;;;;;;4930092;29;20098;-66
2023/04/03 06:57:06;;;;;;;6.35;1.45;;;;;;;;;;4922792;29;20056;-65
2023/04/03 06:59:33;;;;;;;9.00;2.20;;;;;;;;;;4921874;29;20722;-65
2023/04/03 07:02:00;;;;;;;9.15;1.73;;;;;;;;;;4925374;29;20074;-67
2023/04/03 07:04:26;;;;;;;5.95;1.85;;;;;;;;;;4921963;29;20167;-65
2023/04/03 07:06:53;;;;;;;6.22;1.77;;;;;;;;;;4927826;29;20618;-67
2023/04/03 07:09:19;;;;;;;6.00;1.70;;;;;;;;;;4897978;29;20496;-67
2023/04/03 07:11:46;;;;;;;9.93;2.08;;;;;;;;;;4919246;29;20070;-66
2023/04/03 07:14:12;;;;;;;2.97;1.70;;;;;;;;;;4925482;29;20062;-68
2023/04/03 07:16:38;;;;;;;5.40;1.52;;;;;;;;;;4924559;29;20048;-66
2023/04/03 07:19:08;;;;;;;7.43;1.67;;;;;;;;;;4927921;29;20512;-65
2023/04/03 07:21:35;;;;;;;7.50;1.67;;;;;;;;;;4921642;29;20050;-66
2023/04/03 07:24:01;;;;;;;8.50;2.00;;;;;;;;;;4925444;29;20051;-66
2023/04/03 07:26:28;;;;;;;4.97;1.67;;;;;;;;;;4919138;29;20505;-66
2023/04/03 07:28:54;;;;;;;7.18;2.13;;;;;;;;;;4926917;29;20047;-65
2023/04/03 07:31:20;;;;;;;5.28;1.73;;;;;;;;;;4928443;29;20444;-66
2023/04/03 07:33:47;;;;;;;4.07;1.45;;;;;;;;;;4922879;29;20591;-67
2023/04/03 07:36:14;;;;;;;4.82;1.50;;;;;;;;;;4928570;29;20054;-67
2023/04/03 07:43:56;;;;;;;3.20;1.40;;;;;;;;;;4935309;28;25126;-66
2023/04/03 07:46:23;;;;;;;8.25;1.92;;;;;;;;;;4944677;28;20047;-65
2023/04/03 07:48:49;;;;;;;4.85;1.70;;;;;;;;;;4950945;28;20050;-66
2023/04/03 07:51:16;;;;;;;5.80;1.73;;;;;;;;;;4944964;28;20078;-66
2023/04/03 07:53:42;;;;;;;3.55;1.40;;;;;;;;;;4940292;28;20051;-66
2023/04/03 07:56:09;;;;;;;6.70;1.70;;;;;;;;;;4937787;28;20139;-65
2023/04/03 07:58:36;;;;;;;5.70;1.60;;;;;;;;;;4935161;28;20048;-65
2023/04/03 08:01:03;;;;;;;5.68;1.50;;;;;;;;;;4939884;28;20051;-66
2023/04/03 08:03:29;;;;;;;2.45;1.20;;;;;;;;;;4953205;28;20047;-65
2023/04/03 08:06:01;;;;;;;5.80;1.25;;;;;;;;;;4943936;28;20075;-66
2023/04/03 08:08:29;;;;;;;3.25;1.10;;;;;;;;;;4938006;28;20071;-65
2023/04/03 08:10:57;;;;;;;2.55;1.40;;;;;;;;;;4954575;28;20039;-65
2023/04/03 08:13:24;;;;;;;4.38;1.10;;;;;;;;;;4933869;28;20278;-65
2023/04/03 08:15:50;;;;;;;5.35;0.95;;;;;;;;;;4943925;28;20055;-67
2023/04/03 08:18:18;;;;;;;4.85;1.05;;;;;;;;;;4940298;28;20065;-66
2023/04/03 08:20:44;;;;;;;1.55;0.90;;;;;;;;;;4945559;28;20054;-66
2023/04/03 08:23:11;;;;;;;5.15;1.10;;;;;;;;;;4940148;28;20728;-66
2023/04/03 08:25:38;;;;;;;5.70;1.27;;;;;;;;;;4939050;28;20047;-67
2023/04/03 08:28:04;;;;;;;4.95;1.25;;;;;;;;;;4941647;28;20142;-65
2023/04/03 08:30:31;;;;;;;5.72;1.40;;;;;;;;;;4937279;28;20467;-66
2023/04/03 08:32:59;;;;;;;3.60;1.35;;;;;;;;;;4941814;28;20050;-66
2023/04/03 08:35:26;;;;;;;2.67;1.25;;;;;;;;;;4935604;28;20051;-66
2023/04/03 08:43:14;;;;;;;3.20;0.85;;;;;;;;;;4903531;29;20062;-76
2023/04/03 08:45:45;;;;;;;4.50;1.10;;;;;;;;;;4920029;29;20492;-74
2023/04/03 08:48:19;;;;;;;3.08;1.20;;;;;;;;;;4914977;29;20142;-75
2023/04/03 08:50:47;;;;;;;2.17;0.75;;;;;;;;;;4927318;29;20118;-75
2023/04/03 08:53:26;;;;;;;3.83;0.90;;;;;;;;;;4915612;29;20496;-75
2023/04/03 08:55:53;;;;;;;1.38;0.82;;;;;;;;;;4929497;29;20050;-75
2023/04/03 08:58:21;;;;;;;1.45;0.75;;;;;;;;;;4923845;29;20048;-75
2023/04/03 09:00:49;;;;;;;3.37;1.27;;;;;;;;;;4931938;29;20048;-75
2023/04/03 09:03:17;;;;;;;2.97;0.90;;;;;;;;;;4928427;29;20577;-75
2023/04/03 09:05:45;;;;;;;;;;;;;;;;;;4922133;29;20039;-74
2023/04/03 09:08:15;;;;;;;5.18;1.05;;;;;;;;;;4941328;28;19922;-75
2023/04/03 09:10:41;;;;;;;4.25;0.80;;;;;;;;;;4922232;28;20051;-75
2023/04/03 09:13:13;;;;;;;2.40;0.90;;;;;;;;;;4931396;29;20060;-74
2023/04/03 09:15:40;;;;;;;2.05;0.98;;;;;;;;;;4926177;29;20044;-75
2023/04/03 09:18:16;;;;;;;2.90;0.80;;;;;;;;;;4934476;29;20055;-75
2023/04/03 09:20:46;;;;;;;2.33;0.93;;;;;;;;;;4944348;29;20039;-75
2023/04/03 09:23:19;;;;;;;3.30;0.90;;;;;;;;;;4930280;29;20423;-75
2023/04/03 09:25:46;;;;;;;4.40;0.70;;;;;;;;;;4950345;29;20028;-75
2023/04/03 09:28:12;;;;;;;1.00;0.65;;;;;;;;;;4947095;28;20103;-76
2023/04/03 09:30:38;;;;;;;4.80;1.15;;;;;;;;;;4943608;29;20079;-76
2023/04/03 09:33:06;;;;;;;1.63;0.60;;;;;;;;;;4927743;29;20059;-75
2023/04/03 09:35:34;;;;;;;2.92;0.90;;;;;;;;;;4934175;29;20056;-75
2023/04/03 09:38:13;;;;;;;1.35;0.40;;;;;;;;;;4921683;29;20065;-75
2023/04/03 09:40:41;;;;;;;1.17;0.77;;;;;;;;;;4927410;29;20476;-74
2023/04/03 09:43:17;;;;;;;1.08;0.80;;;;;;;;;;4945262;29;20055;-74
2023/04/03 09:45:44;;;;;;;3.33;0.60;;;;;;;;;;4913137;29;20047;-75
2023/04/03 09:48:13;;;;;;;2.25;0.70;;;;;;;;;;4927659;29;20058;-74
2023/04/03 09:50:51;;;;;;;2.22;0.70;;;;;;;;;;4908019;29;20079;-75
2023/04/03 09:53:35;;;;;;;2.22;0.70;;;;;;;;;;4927206;29;20043;-74
2023/04/03 09:56:03;;;;;;;1.27;0.63;;;;;;;;;;4918857;29;20136;-75
2023/04/03 09:58:42;;;;;;;0.70;0.50;;;;;;;;;;4931861;29;20052;-75
2023/04/03 10:01:28;;;;;;;3.53;0.60;;;;;;;;;;4920166;29;20059;-75
2023/04/03 10:04:04;;;;;;;0.98;0.55;;;;;;;;;;4940346;29;20055;-75
2023/04/03 10:06:32;;;;;;;0.95;0.50;;;;;;;;;;4925813;28;20126;-75
2023/04/03 10:09:00;;;;;;;2.13;0.70;;;;;;;;;;4927489;29;20044;-75
2023/04/03 10:11:27;;;;;;;1.75;0.60;;;;;;;;;;4941853;28;21083;-74
2023/04/03 10:13:59;;;;;;;2.25;0.70;;;;;;;;;;4921938;29;20114;-75
2023/04/03 10:16:48;;;;;;;0.90;0.80;;;;;;;;;;4932259;29;20055;-75
2023/04/03 10:19:29;;;;;;;3.03;0.65;;;;;;;;;;4920988;29;20067;-74
2023/04/03 10:22:04;;;;;;;1.00;0.63;;;;;;;;;;4927884;29;20066;-74
2023/04/03 10:24:36;;;;;;;1.35;0.80;;;;;;;;;;4926225;29;20090;-76
2023/04/03 10:27:07;;;;;;;1.23;0.70;;;;;;;;;;4930867;29;20083;-75
2023/04/03 10:29:46;;;;;;;1.30;0.70;;;;;;;;;;4947906;28;20504;-75
2023/04/03 10:32:12;;;;;;;;;;;;;;;;;;4920922;29;20051;-75
2023/04/03 10:34:40;;;;;;;1.05;0.57;;;;;;;;;;4939109;29;19927;-75
2023/04/03 10:37:26;;;;;;;2.22;0.95;;;;;;;;;;4925544;29;20094;-75
2023/04/03 10:40:01;;;;;;;1.17;0.68;;;;;;;;;;4927868;29;20055;-74
2023/04/03 10:42:32;;;;;;;2.78;0.80;;;;;;;;;;4924299;29;20070;-75
2023/04/03 10:45:02;;;;;;;2.00;1.15;;;;;;;;;;4931224;29;20047;-75
2023/04/03 10:47:43;;;;;;;1.90;0.70;;;;;;;;;;4920163;29;20095;-76
2023/04/03 10:50:16;;;;;;;2.60;1.00;;;;;;;;;;4930699;29;20044;-74
2023/04/03 10:52:46;;;;;;;2.50;0.75;;;;;;;;;;4921752;29;20048;-75
2023/04/03 10:55:12;;;;;;;2.55;0.80;;;;;;;;;;4917342;29;20082;-75
2023/04/03 10:57:40;;;;;;;1.23;0.70;;;;;;;;;;4924856;29;20480;-75
2023/04/03 11:00:14;;;;;;;3.50;0.70;;;;;;;;;;4927068;29;20130;-75
2023/04/03 11:02:52;;;;;;;0.93;0.52;;;;;;;;;;4926897;29;20082;-75
2023/04/03 11:05:26;;;;;;;2.42;0.95;;;;;;;;;;4924103;28;20055;-75
2023/04/03 11:07:53;;;;;;;2.95;0.90;;;;;;;;;;4929204;29;20059;-73
2023/04/03 11:10:28;;;;;;;3.20;1.40;;;;;;;;;;4928958;28;20115;-75
2023/04/03 11:13:01;;;;;;;1.70;0.73;;;;;;;;;;4950493;28;20110;-75
2023/04/03 11:15:32;;;;;;;2.28;0.82;;;;;;;;;;4924927;29;20054;-76
2023/04/03 11:18:06;;;;;;;2.33;0.80;;;;;;;;;;4931378;29;20441;-75
2023/04/03 11:20:37;;;;;;;2.28;0.82;;;;;;;;;;4923845;29;20390;-75
2023/04/03 11:23:28;;;;;;;2.55;0.70;;;;;;;;;;4924389;29;20138;-76
2023/04/03 11:26:11;;;;;;;1.45;0.73;;;;;;;;;;4925278;29;20056;-76
2023/04/03 11:28:38;;;;;;;1.60;0.70;;;;;;;;;;4935821;29;20051;-75
2023/04/03 11:31:07;;;;;;;3.53;1.00;;;;;;;;;;4932378;29;20061;-74
2023/04/03 11:33:53;;;;;;;1.13;0.50;;;;;;;;;;4933909;28;20456;-74
2023/04/03 11:36:25;;;;;;;1.98;0.80;;;;;;;;;;4942350;28;20055;-74
2023/04/03 11:38:59;;;;;;;3.33;0.75;;;;;;;;;;4915610;29;20044;-74
2023/04/03 11:41:30;;;;;;;3.63;0.80;;;;;;;;;;4918557;29;20151;-74
2023/04/03 11:43:58;;;;;;;1.52;0.75;;;;;;;;;;4919772;29;20229;-74
2023/04/03 11:46:43;;;;;;;4.28;0.88;;;;;;;;;;4924188;29;20051;-74
2023/04/03 11:49:28;;;;;;;2.28;0.82;;;;;;;;;;4936686;28;20083;-76
2023/04/03 11:51:55;;;;;;;2.55;1.05;;;;;;;;;;4922951;29;20079;-73
2023/04/03 11:54:40;;;;;;;2.38;0.90;;;;;;;;;;4915999;29;20056;-74
2023/04/03 11:57:42;;;;;;;2.10;0.70;;;;;;;;;;4919500;29;20147;-73
2023/04/03 12:00:27;;;;;;;3.45;1.25;;;;;;;;;;4917326;29;20056;-74
2023/04/03 12:02:56;;;;;;;2.42;1.15;;;;;;;;;;4923932;29;20044;-74
2023/04/03 12:05:29;;;;;;;3.30;0.80;;;;;;;;;;4945487;28;20093;-74
2023/04/03 12:08:29;;;;;;;4.03;0.88;;;;;;;;;;4915359;29;20335;-74
2023/04/03 12:11:13;;;;;;;1.80;1.20;;;;;;;;;;4912899;28;20055;-74
2023/04/03 12:13:41;;;;;;;2.22;0.98;;;;;;;;;;4915392;29;20052;-73
2023/04/03 12:16:20;;;;;;;2.72;1.00;;;;;;;;;;4926553;29;20060;-74
2023/04/03 12:18:53;;;;;;;1.98;0.82;;;;;;;;;;4920628;29;20052;-74
2023/04/03 12:21:23;;;;;;;2.70;0.93;;;;;;;;;;4926934;29;20075;-74
2023/04/03 12:23:56;;;;;;;1.63;0.80;;;;;;;;;;4932879;28;20048;-74
2023/04/03 12:26:25;;;;;;;1.50;0.82;;;;;;;;;;4934992;29;20059;-74
2023/04/03 12:29:13;;;;;;;1.60;0.95;;;;;;;;;;4926465;29;20134;-74
2023/04/03 12:31:48;;;;;;;5.60;1.23;;;;;;;;;;4919610;29;20048;-73
2023/04/03 12:34:18;;;;;;;3.78;1.10;;;;;;;;;;4920105;29;20135;-74
2023/04/03 12:36:51;;;;;;;3.50;0.80;;;;;;;;;;4915340;29;20732;-75
2023/04/03 12:39:47;;;;;;;1.83;0.90;;;;;;;;;;4925982;29;20071;-74
2023/04/03 12:42:22;;;;;;;2.95;0.88;;;;;;;;;;4858227;29;20064;-74
2023/04/03 12:45:01;;;;;;;3.63;1.30;;;;;;;;;;4929310;29;20426;-74
2023/04/03 12:47:28;;;;;;;1.65;1.00;;;;;;;;;;4922607;29;20051;-74
2023/04/03 12:49:55;;;;;;;2.45;0.80;;;;;;;;;;4925829;29;20657;-74
2023/04/03 12:52:28;;;;;;;1.83;0.90;;;;;;;;;;4923307;29;20047;-74
2023/04/03 12:54:54;;;;;;;3.45;1.10;;;;;;;;;;4935721;29;20066;-74
2023/04/03 12:57:23;;;;;;;3.85;0.95;;;;;;;;;;4927499;29;20592;-75
2023/04/03 12:59:50;;;;;;;3.85;1.20;;;;;;;;;;4925210;29;20079;-73
2023/04/03 13:02:23;;;;;;;3.60;1.42;;;;;;;;;;4934616;29;20044;-75
2023/04/03 13:04:50;;;;;;;3.15;1.10;;;;;;;;;;4915648;29;20079;-75
2023/04/03 13:07:21;;;;;;;4.78;0.88;;;;;;;;;;4930496;29;20392;-74
2023/04/03 13:10:01;;;;;;;2.97;1.15;;;;;;;;;;4927129;29;20044;-74
2023/04/03 13:12:28;;;;;;;3.83;1.00;;;;;;;;;;4927186;29;20294;-74
2023/04/03 13:14:59;;;;;;;2.55;1.08;;;;;;;;;;4927266;29;20134;-74
2023/04/03 13:17:26;;;;;;;2.22;0.90;;;;;;;;;;4926457;29;20134;-74
2023/04/03 13:19:52;;;;;;;3.80;0.90;;;;;;;;;;4924849;29;20085;-74
2023/04/03 13:22:38;;;;;;;4.43;1.10;;;;;;;;;;4925323;29;20077;-74
2023/04/03 13:25:07;;;;;;;4.25;1.20;;;;;;;;;;4927711;29;20155;-74
2023/04/03 13:27:34;;;;;;;6.50;1.38;;;;;;;;;;4920023;29;20496;-74
2023/04/03 13:30:01;;;;;;;3.55;1.70;;;;;;;;;;4924592;29;20118;-74
2023/04/03 13:32:29;;;;;;;3.08;1.10;;;;;;;;;;4920964;29;20055;-74
2023/04/03 13:34:55;;;;;;;2.47;1.10;;;;;;;;;;4928227;29;20079;-74
2023/04/03 13:37:29;;;;;;;2.97;1.20;;;;;;;;;;4926455;29;20592;-74
2023/04/03 13:39:57;;;;;;;4.43;1.10;;;;;;;;;;4924991;29;20058;-74
2023/04/03 13:42:31;;;;;;;3.22;1.30;;;;;;;;;;4927145;29;20083;-74
2023/04/03 13:45:15;;;;;;;3.10;1.10;;;;;;;;;;4917678;29;20051;-74
2023/04/03 13:47:43;;;;;;;1.63;0.82;;;;;;;;;;4924523;29;20076;-74
2023/04/03 13:50:15;;;;;;;2.70;1.10;;;;;;;;;;4922981;29;20051;-74
2023/04/03 13:52:43;;;;;;;3.25;1.10;;;;;;;;;;4926005;29;20052;-74
2023/04/03 13:55:16;;;;;;;5.72;1.30;;;;;;;;;;4919709;29;20493;-74
2023/04/03 13:57:52;;;;;;;4.28;1.10;;;;;;;;;;4927567;29;20065;-74
2023/04/03 14:00:30;;;;;;;5.70;1.50;;;;;;;;;;4941837;28;20820;-74
2023/04/03 14:02:57;;;;;;;5.70;1.23;;;;;;;;;;4924722;29;20062;-74
2023/04/03 14:05:25;;;;;;;3.35;1.10;;;;;;;;;;4926646;29;20616;-74
2023/04/03 14:07:52;;;;;;;3.30;1.10;;;;;;;;;;4928086;29;20130;-74
2023/04/03 14:10:19;;;;;;;4.00;1.30;;;;;;;;;;4928439;29;20104;-74
2023/04/03 14:12:46;;;;;;;3.47;1.52;;;;;;;;;;4920203;28;20107;-74
2023/04/03 14:15:18;;;;;;;3.63;1.05;;;;;;;;;;4932153;29;20551;-74
2023/04/03 14:17:45;;;;;;;2.78;1.10;;;;;;;;;;4913241;29;20056;-74
2023/04/03 14:20:16;;;;;;;2.22;1.30;;;;;;;;;;4941002;29;20078;-74
2023/04/03 14:22:43;;;;;;;2.17;1.08;;;;;;;;;;4916063;29;20393;-75
2023/04/03 14:25:10;;;;;;;2.53;1.00;;;;;;;;;;4921068;29;20456;-75
2023/04/03 14:27:38;;;;;;;2.08;1.13;;;;;;;;;;4922563;29;20158;-75
2023/04/03 14:30:06;;;;;;;2.88;1.20;;;;;;;;;;4918978;29;20070;-74
2023/04/03 14:32:33;;;;;;;4.03;1.48;;;;;;;;;;4931115;29;20650;-77
2023/04/03 14:35:14;;;;;;;4.20;1.60;;;;;;;;;;4911132;29;20130;-74
2023/04/03 14:37:41;;;;;;;4.53;1.55;;;;;;;;;;4932460;29;20510;-74
2023/04/03 14:40:08;;;;;;;2.15;1.27;;;;;;;;;;4908189;29;20134;-74
2023/04/03 14:42:36;;;;;;;4.60;1.50;;;;;;;;;;4931625;29;20143;-74
2023/04/03 14:45:05;;;;;;;3.28;1.38;;;;;;;;;;4930309;29;20047;-74
2023/04/03 14:47:31;;;;;;;3.53;1.42;;;;;;;;;;4927101;29;20060;-77
2023/04/03 14:50:02;;;;;;;4.03;1.33;;;;;;;;;;4932000;29;20102;-74
2023/04/03 14:52:31;;;;;;;3.75;1.50;;;;;;;;;;4924324;29;20208;-74
2023/04/03 14:54:57;;;;;;;;;;;;;;;;;;4930232;29;20115;-74
2023/04/03 14:57:25;;;;;;;4.05;1.25;;;;;;;;;;4937790;28;20036;-74
2023/04/03 14:59:52;;;;;;;4.22;1.38;;;;;;;;;;4933907;29;20047;-75
2023/04/03 15:02:30;;;;;;;3.35;1.38;;;;;;;;;;4932207;29;20361;-74
2023/04/03 15:04:57;;;;;;;3.60;1.25;;;;;;;;;;4919401;29;20058;-74
2023/04/03 15:07:25;;;;;;;5.53;1.30;;;;;;;;;;4923757;29;20060;-74
2023/04/03 15:09:51;;;;;;;2.95;1.23;;;;;;;;;;4928078;29;20058;-74